Orpheus — WDJ4869 — position and weather

sailwx.info

Track history (hours):
 
Tides and Currents Weather Stations Pressure Air Temp Water Temp Dewpoint Dewpoint Depression Visibility Wind Speed Wind Dir Waves Ship Positions

Orpheus

Owner: Joukov, Serguei, Reston, VA. More information available from US FCC via Universal Licensing System and Coast Guard Vessel Documentation Center.

Last reported at 2017-Nov-05 19:52 UTC. Time now 2018-Apr-21 07:59 UTC.
Position N 38°52' W 076°31'.
Warning: this ship's position is months out of date.

Length 12 m.

Type: Sailing vessel. MMSI: 367781970.

Date/timePositionNaut miles runAvg speedWind from/ knotsBaromVisibWave heightAir tempDewpointWater temp
2017-Nov-05 19:52N 38°52' W 076°31'2 5.6
2017-Nov-05 19:30N 38°50' W 076°32'  
2017-Nov-01 19:25N 38°58' W 076°29'0 0.0
2017-Nov-01 18:55N 38°58' W 076°29'0 0.0
2017-Nov-01 18:25N 38°58' W 076°29'0 0.0
2017-Oct-31 14:10N 38°58' W 076°29'0 0.0
2017-Oct-31 13:58N 38°58' W 076°29'0 0.0
2017-Oct-31 13:30N 38°58' W 076°29'0 0.0
2017-Oct-31 06:32N 38°58' W 076°29'1 2.0
2017-Oct-31 06:17N 38°58' W 076°29'1 1.7
2017-Oct-31 05:59N 38°58' W 076°29'0 0.0
2017-Oct-31 05:30N 38°58' W 076°29'0 0.1
2017-Oct-31 05:00N 38°58' W 076°29'0 0.1
2017-Oct-31 04:30N 38°58' W 076°29'0 0.0
2017-Oct-31 04:00N 38°58' W 076°29'0 0.0
2017-Oct-31 03:25N 38°58' W 076°29'0 0.0
2017-Oct-31 03:00N 38°58' W 076°29'0 0.0
2017-Oct-29 13:44N 38°58' W 076°29'0 0.0
2017-Oct-29 13:29N 38°58' W 076°29'0 0.0
2017-Oct-29 12:59N 38°58' W 076°29'0 0.0
2017-Oct-29 12:29N 38°58' W 076°29'0 0.0
2017-Oct-29 11:59N 38°58' W 076°29'0 0.0
2017-Oct-29 11:26N 38°58' W 076°29'0 0.0
2017-Oct-29 10:59N 38°58' W 076°29'0 0.1
2017-Oct-29 10:28N 38°58' W 076°29'0 0.1
2017-Oct-29 10:00N 38°58' W 076°29'0 0.1
2017-Oct-29 09:30N 38°58' W 076°29'0 0.0
2017-Oct-29 09:00N 38°58' W 076°29'0 0.0
2017-Oct-29 08:30N 38°58' W 076°29'0 0.0
2017-Oct-29 08:00N 38°58' W 076°29'0 0.0
2017-Oct-29 07:28N 38°58' W 076°29'0 0.0
2017-Oct-29 07:00N 38°58' W 076°29'0 0.0
2017-Oct-29 06:30N 38°58' W 076°29'0 0.0
2017-Oct-29 06:00N 38°58' W 076°29'0 0.0
2017-Oct-29 05:30N 38°58' W 076°29'0 0.0
2017-Oct-29 05:00N 38°58' W 076°29'7 0.7
2017-Oct-28 18:43N 38°51' W 076°31'0 0.0
2017-Oct-28 18:28N 38°51' W 076°31'0 0.0
2017-Oct-28 18:00N 38°51' W 076°31'5 4.4
2017-Oct-28 16:56N 38°54' W 076°26'1 2.5
2017-Oct-28 16:30N 38°55' W 076°26'2 3.8
2017-Oct-28 15:59N 38°56' W 076°23'1 2.3
2017-Oct-28 15:30N 38°57' W 076°24'3 4.1
2017-Oct-28 14:41N 38°58' W 076°29'0 0.1
2017-Oct-28 14:29N 38°58' W 076°29'0 0.0
2017-Oct-28 13:56N 38°58' W 076°29'0 0.0
2017-Oct-27 12:23N 38°58' W 076°29'0 0.0
2017-Oct-27 11:59N 38°58' W 076°29'0 0.0
2017-Oct-27 11:26N 38°58' W 076°29'0 0.0
2017-Oct-27 10:59N 38°58' W 076°29'0 0.0
2017-Oct-27 10:29N 38°58' W 076°29'0 0.0
2017-Oct-27 09:59N 38°58' W 076°29'0 0.0
2017-Oct-27 09:29N 38°58' W 076°29'0 0.0
2017-Oct-27 08:59N 38°58' W 076°29'0 0.0
2017-Oct-27 08:29N 38°58' W 076°29'0 0.0
2017-Oct-27 07:59N 38°58' W 076°29'0 0.0
2017-Oct-27 07:29N 38°58' W 076°29'0 0.0
2017-Oct-27 06:59N 38°58' W 076°29'0 0.0
2017-Oct-27 06:29N 38°58' W 076°29'0 0.0
2017-Oct-27 05:56N 38°58' W 076°29'0 0.0
2017-Oct-27 05:29N 38°58' W 076°29'0 0.0
2017-Oct-27 04:44N 38°58' W 076°29'0 0.0
2017-Oct-27 04:29N 38°58' W 076°29'0 0.0
2017-Oct-27 03:59N 38°58' W 076°29'0 0.0
2017-Oct-27 03:29N 38°58' W 076°29'0 0.0
2017-Oct-27 02:59N 38°58' W 076°29'0 0.0
2017-Oct-27 02:29N 38°58' W 076°29'0 0.0
2017-Oct-27 01:53N 38°58' W 076°29'0 0.0
2017-Oct-27 01:29N 38°58' W 076°29'0 0.0
2017-Oct-27 00:59N 38°58' W 076°29'0 0.0
2017-Oct-27 00:29N 38°58' W 076°29'0 0.0
2017-Oct-26 23:59N 38°58' W 076°29'0 0.0
2017-Oct-26 23:29N 38°58' W 076°29'0 0.0
2017-Oct-26 22:59N 38°58' W 076°29'0 0.0
2017-Oct-26 22:29N 38°58' W 076°29'0 0.0
2017-Oct-26 21:59N 38°58' W 076°29'0 0.0
2017-Oct-26 21:29N 38°58' W 076°29'0 0.0
2017-Oct-26 20:59N 38°58' W 076°29'0 0.0
2017-Oct-26 20:29N 38°58' W 076°29'0 0.0
2017-Oct-26 19:59N 38°58' W 076°29'  
Track history (hours):
 
Tides and Currents Weather Stations Pressure Air Temp Water Temp Dewpoint Dewpoint Depression Visibility Wind Speed Wind Dir Waves Ship Positions

Orpheus

Owner: Joukov, Serguei, Reston, VA. More information available from US FCC via Universal Licensing System and Coast Guard Vessel Documentation Center.

Last reported at 2017-Nov-05 19:52 UTC. Time now 2018-Apr-21 07:59 UTC.
Position N 38°52' W 076°31'.
Warning: this ship's position is months out of date.

Length 12 m.

Type: Sailing vessel. MMSI: 367781970.

Date/timePositionNaut miles runAvg speedWind from/ knotsBaromVisibWave heightAir tempDewpointWater temp
2017-Nov-05 19:52N 38°52' W 076°31'2 5.6
2017-Nov-05 19:30N 38°50' W 076°32'  
2017-Nov-01 19:25N 38°58' W 076°29'0 0.0
2017-Nov-01 18:55N 38°58' W 076°29'0 0.0
2017-Nov-01 18:25N 38°58' W 076°29'0 0.0
2017-Oct-31 14:10N 38°58' W 076°29'0 0.0
2017-Oct-31 13:58N 38°58' W 076°29'0 0.0
2017-Oct-31 13:30N 38°58' W 076°29'0 0.0
2017-Oct-31 06:32N 38°58' W 076°29'1 2.0
2017-Oct-31 06:17N 38°58' W 076°29'1 1.7
2017-Oct-31 05:59N 38°58' W 076°29'0 0.0
2017-Oct-31 05:30N 38°58' W 076°29'0 0.1
2017-Oct-31 05:00N 38°58' W 076°29'0 0.1
2017-Oct-31 04:30N 38°58' W 076°29'0 0.0
2017-Oct-31 04:00N 38°58' W 076°29'0 0.0
2017-Oct-31 03:25N 38°58' W 076°29'0 0.0
2017-Oct-31 03:00N 38°58' W 076°29'0 0.0
2017-Oct-29 13:44N 38°58' W 076°29'0 0.0
2017-Oct-29 13:29N 38°58' W 076°29'0 0.0
2017-Oct-29 12:59N 38°58' W 076°29'0 0.0
2017-Oct-29 12:29N 38°58' W 076°29'0 0.0
2017-Oct-29 11:59N 38°58' W 076°29'0 0.0
2017-Oct-29 11:26N 38°58' W 076°29'0 0.0
2017-Oct-29 10:59N 38°58' W 076°29'0 0.1
2017-Oct-29 10:28N 38°58' W 076°29'0 0.1
2017-Oct-29 10:00N 38°58' W 076°29'0 0.1
2017-Oct-29 09:30N 38°58' W 076°29'0 0.0
2017-Oct-29 09:00N 38°58' W 076°29'0 0.0
2017-Oct-29 08:30N 38°58' W 076°29'0 0.0
2017-Oct-29 08:00N 38°58' W 076°29'0 0.0
2017-Oct-29 07:28N 38°58' W 076°29'0 0.0
2017-Oct-29 07:00N 38°58' W 076°29'0 0.0
2017-Oct-29 06:30N 38°58' W 076°29'0 0.0
2017-Oct-29 06:00N 38°58' W 076°29'0 0.0
2017-Oct-29 05:30N 38°58' W 076°29'0 0.0
2017-Oct-29 05:00N 38°58' W 076°29'7 0.7
2017-Oct-28 18:43N 38°51' W 076°31'0 0.0
2017-Oct-28 18:28N 38°51' W 076°31'0 0.0
2017-Oct-28 18:00N 38°51' W 076°31'5 4.4
2017-Oct-28 16:56N 38°54' W 076°26'1 2.5
2017-Oct-28 16:30N 38°55' W 076°26'2 3.8
2017-Oct-28 15:59N 38°56' W 076°23'1 2.3
2017-Oct-28 15:30N 38°57' W 076°24'3 4.1
2017-Oct-28 14:41N 38°58' W 076°29'0 0.1
2017-Oct-28 14:29N 38°58' W 076°29'0 0.0
2017-Oct-28 13:56N 38°58' W 076°29'0 0.0
2017-Oct-27 12:23N 38°58' W 076°29'0 0.0
2017-Oct-27 11:59N 38°58' W 076°29'0 0.0
2017-Oct-27 11:26N 38°58' W 076°29'0 0.0
2017-Oct-27 10:59N 38°58' W 076°29'0 0.0
2017-Oct-27 10:29N 38°58' W 076°29'0 0.0
2017-Oct-27 09:59N 38°58' W 076°29'0 0.0
2017-Oct-27 09:29N 38°58' W 076°29'0 0.0
2017-Oct-27 08:59N 38°58' W 076°29'0 0.0
2017-Oct-27 08:29N 38°58' W 076°29'0 0.0
2017-Oct-27 07:59N 38°58' W 076°29'0 0.0
2017-Oct-27 07:29N 38°58' W 076°29'0 0.0
2017-Oct-27 06:59N 38°58' W 076°29'0 0.0
2017-Oct-27 06:29N 38°58' W 076°29'0 0.0
2017-Oct-27 05:56N 38°58' W 076°29'0 0.0
2017-Oct-27 05:29N 38°58' W 076°29'0 0.0
2017-Oct-27 04:44N 38°58' W 076°29'0 0.0
2017-Oct-27 04:29N 38°58' W 076°29'0 0.0
2017-Oct-27 03:59N 38°58' W 076°29'0 0.0
2017-Oct-27 03:29N 38°58' W 076°29'0 0.0
2017-Oct-27 02:59N 38°58' W 076°29'0 0.0
2017-Oct-27 02:29N 38°58' W 076°29'0 0.0
2017-Oct-27 01:53N 38°58' W 076°29'0 0.0
2017-Oct-27 01:29N 38°58' W 076°29'0 0.0
2017-Oct-27 00:59N 38°58' W 076°29'0 0.0
2017-Oct-27 00:29N 38°58' W 076°29'0 0.0
2017-Oct-26 23:59N 38°58' W 076°29'0 0.0
2017-Oct-26 23:29N 38°58' W 076°29'0 0.0
2017-Oct-26 22:59N 38°58' W 076°29'0 0.0
2017-Oct-26 22:29N 38°58' W 076°29'0 0.0
2017-Oct-26 21:59N 38°58' W 076°29'0 0.0
2017-Oct-26 21:29N 38°58' W 076°29'0 0.0
2017-Oct-26 20:59N 38°58' W 076°29'0 0.0
2017-Oct-26 20:29N 38°58' W 076°29'0 0.0
2017-Oct-26 19:59N 38°58' W 076°29'  

Dump ship's entire track history